Skip Navigation LinksHome page > Weather > Current weather Skip Navigation Links

Current Weather

Lansing Muni, Lansing, Ill.

For information only: do not use for flight planning or navigation.
Latest weather
Observation time Tuesday, October 19, 2021 3:15 PM CDT
Local time Tuesday, October 19, 2021 3:40 PM CDT
Flight conditions Visual Meteorological Conditions
Winds
Wind direction South-Southwest (200°)
Wind speed 13 mph
Wind gusting to 18 mph
Visibility 10 mi.
Sky condition
Ceiling unlimited
Sky clear
Temperature 71°F
Dewpoint 45°F
Altimeter 30.08 in.Hg
Derived measurements
Relative humidity 40%
Density altitude 1343 ft.
Remarks
Fully automated report.
Automated weather observing station with precipitation discriminator.
METAR KIGQ 192015Z AUTO 20011G16KT 10SM CLR 22/07 A3008 RMK AO2 T02150073

Settings

Location code

InnerDrive.Weather 4.0.6770.0 Release CLR 4.0.30319.42000
Copyright ©2018 Inner Drive Technology. All rights reserved. Portions Copyright ©1986-2018 David Braverman.

Find weather

Site navigation


Skip Navigation Links

Place info

Page info

PayPal - The safer, easier way to pay online!

Return home.

Copyright ©2021 Inner Drive Technology. Purveyors of fine, hand-crafted computer software. Page printed 2021-10-19T20:40:35 UTC.